Time;durP1;ratioP1;P1;durP2;ratioP2;P2;SDS_P1;SDS_P2;PMS_P1;PMS_P2;Temp;Humidity;BMP_temperature;BMP_pressure;BME280_temperature;BME280_humidity;BME280_pressure;Samples;Min_cycle;Max_cycle;Signal;HPM_P1;HPM_P2
2023/10/26 00:00:59;;;;;;;23.73;7.87;;;;;;;16.10;100.00;93802.50;5071365;28;20213;-44
2023/10/26 00:03:26;;;;;;;29.57;7.47;;;;;;;16.08;100.00;93803.69;5067193;28;20190;-44
2023/10/26 00:05:54;;;;;;;31.30;7.87;;;;;;;16.07;100.00;93805.50;5071555;28;20191;-44
2023/10/26 00:08:21;;;;;;;40.17;8.17;;;;;;;16.10;100.00;93804.28;5069930;28;20202;-44
2023/10/26 00:10:48;;;;;;;23.33;7.20;;;;;;;16.11;100.00;93811.84;5070109;28;20190;-44
2023/10/26 00:13:14;;;;;;;45.30;7.63;;;;;;;16.13;100.00;93816.81;5071233;28;20185;-44
2023/10/26 00:15:41;;;;;;;22.87;6.97;;;;;;;16.12;100.00;93825.53;5083436;28;20201;-45
2023/10/26 00:18:08;;;;;;;23.17;7.47;;;;;;;16.09;100.00;93792.38;5090314;28;20193;-45
2023/10/26 00:20:35;;;;;;;25.07;8.00;;;;;;;16.06;100.00;93798.72;5090247;28;20186;-44
2023/10/26 00:23:03;;;;;;;31.90;7.43;;;;;;;16.03;100.00;93781.06;5090198;28;20190;-43
2023/10/26 00:25:29;;;;;;;38.03;8.50;;;;;;;16.00;100.00;93784.03;5086040;28;20189;-44
2023/10/26 00:27:56;;;;;;;27.07;7.03;;;;;;;16.01;100.00;93788.19;5070542;28;20217;-45
2023/10/26 00:30:23;;;;;;;30.70;8.13;;;;;;;16.02;100.00;93795.75;5069755;28;20182;-44
2023/10/26 00:32:50;;;;;;;29.27;7.43;;;;;;;16.07;100.00;93786.66;5069548;28;20198;-45
2023/10/26 00:35:17;;;;;;;28.83;7.30;;;;;;;16.01;100.00;93783.81;5077422;28;20318;-44
2023/10/26 00:37:43;;;;;;;29.73;7.73;;;;;;;16.04;100.00;93796.34;5070943;28;20678;-44
2023/10/26 00:40:13;;;;;;;24.70;7.50;;;;;;;16.07;100.00;93787.44;5069306;28;20197;-45
2023/10/26 00:42:40;;;;;;;25.97;6.83;;;;;;;16.07;100.00;93799.53;5069452;28;20226;-43
2023/10/26 00:45:07;;;;;;;24.50;7.43;;;;;;;16.05;100.00;93794.56;5070541;28;20595;-42
2023/10/26 00:47:35;;;;;;;38.93;8.23;;;;;;;16.03;100.00;93792.19;5080486;28;20184;-44
2023/10/26 00:50:03;;;;;;;39.03;7.90;;;;;;;16.07;100.00;93802.91;5076358;28;20691;-44
2023/10/26 00:52:30;;;;;;;20.27;6.00;;;;;;;16.06;100.00;93796.13;5069086;28;20685;-44
2023/10/26 00:54:57;;;;;;;28.90;6.87;;;;;;;16.03;100.00;93789.59;5069788;28;20182;-45
2023/10/26 00:57:28;;;;;;;31.90;7.83;;;;;;;16.01;100.00;93790.78;5073512;28;20186;-44
2023/10/26 00:59:55;;;;;;;38.93;7.87;;;;;;;15.98;100.00;93789.38;5089470;28;20194;-44
2023/10/26 01:02:24;;;;;;;19.00;7.23;;;;;;;15.92;100.00;93763.56;5088414;28;20216;-45
2023/10/26 01:04:51;;;;;;;29.90;7.70;;;;;;;15.82;100.00;93766.50;5089881;28;20198;-45
2023/10/26 01:07:18;;;;;;;21.43;6.83;;;;;;;15.84;100.00;93776.63;5087911;28;20540;-48
2023/10/26 01:09:45;;;;;;;28.27;7.23;;;;;;;15.91;100.00;93782.59;5072847;28;20511;-45
2023/10/26 01:12:12;;;;;;;36.40;7.10;;;;;;;15.89;100.00;93792.31;5069046;28;20216;-44
2023/10/26 01:14:40;;;;;;;22.77;7.17;;;;;;;15.88;100.00;93780.41;5069006;28;20289;-44
2023/10/26 01:17:07;;;;;;;20.80;5.97;;;;;;;15.93;100.00;93778.88;5069305;28;20186;-43
2023/10/26 01:19:38;;;;;;;20.60;5.00;;;;;;;15.84;100.00;93769.69;5079007;28;20190;-43
2023/10/26 01:22:07;;;;;;;16.90;6.07;;;;;;;15.79;100.00;93772.84;5089211;28;20308;-44
2023/10/26 01:24:34;;;;;;;18.83;6.03;;;;;;;15.74;100.00;93772.63;5089364;28;20186;-42
2023/10/26 01:27:01;;;;;;;19.60;5.93;;;;;;;15.79;100.00;93765.09;5088980;28;20217;-45
2023/10/26 01:29:28;;;;;;;20.10;6.00;;;;;;;15.78;100.00;93793.66;5085540;28;20200;-44
2023/10/26 01:31:55;;;;;;;22.77;6.17;;;;;;;15.76;100.00;93790.50;5069283;28;20190;-44
2023/10/26 01:34:21;;;;;;;25.60;6.27;;;;;;;15.74;100.00;93795.03;5069119;28;20179;-44
2023/10/26 01:36:48;;;;;;;26.43;6.93;;;;;;;15.72;100.00;93791.88;5069204;28;20251;-44
2023/10/26 01:39:17;;;;;;;29.47;6.20;;;;;;;15.73;100.00;93791.66;5069907;28;20190;-45
2023/10/26 01:41:43;;;;;;;17.37;6.33;;;;;;;15.74;100.00;93792.44;5069045;28;20263;-44
2023/10/26 01:44:10;;;;;;;24.43;6.53;;;;;;;15.71;100.00;93783.31;5081474;28;20281;-44
2023/10/26 01:46:37;;;;;;;28.27;6.03;;;;;;;15.66;100.00;93774.56;5089317;28;20190;-44
2023/10/26 01:49:04;;;;;;;20.63;6.17;;;;;;;15.65;100.00;93780.72;5088842;28;20709;-44
2023/10/26 01:51:31;;;;;;;19.60;6.50;;;;;;;15.64;100.00;93777.34;5080900;28;20547;-44
2023/10/26 01:53:58;;;;;;;24.37;6.80;;;;;;;15.64;100.00;93773.94;5068885;28;20182;-44
2023/10/26 01:56:26;;;;;;;20.57;5.70;;;;;;;15.62;100.00;93770.75;5069029;28;20194;-43
2023/10/26 01:58:53;;;;;;;17.50;6.40;;;;;;;15.65;100.00;93778.94;5080692;28;20186;-48
2023/10/26 02:01:20;;;;;;;17.20;6.07;;;;;;;15.66;100.00;93782.28;5087669;28;20186;-44
2023/10/26 02:03:46;;;;;;;26.70;7.37;;;;;;;15.67;100.00;93789.03;5071188;28;20197;-45
2023/10/26 02:06:14;;;;;;;20.17;5.43;;;;;;;15.66;100.00;93774.56;5069438;28;20194;-44
2023/10/26 02:08:41;;;;;;;19.03;6.13;;;;;;;15.61;100.00;93777.69;5068937;28;20183;-44
2023/10/26 02:11:08;;;;;;;25.50;5.93;;;;;;;15.59;100.00;93773.69;5069457;28;20198;-43
2023/10/26 02:13:36;;;;;;;23.63;6.30;;;;;;;15.56;100.00;93772.31;5081893;28;20205;-44
2023/10/26 02:16:03;;;;;;;23.13;5.73;;;;;;;15.50;100.00;93773.06;5092685;28;20190;-44
2023/10/26 02:18:30;;;;;;;11.53;5.43;;;;;;;15.52;100.00;93778.84;5092515;28;20676;-44
2023/10/26 02:20:58;;;;;;;20.13;5.90;;;;;;;15.36;100.00;93750.78;5092344;28;20593;-44
2023/10/26 02:23:25;;;;;;;24.27;5.13;;;;;;;15.34;100.00;93757.94;5084011;28;20260;-44
2023/10/26 02:25:52;;;;;;;22.53;6.63;;;;;;;15.45;100.00;93772.84;5073972;28;20187;-44
2023/10/26 02:28:19;;;;;;;29.20;6.40;;;;;;;15.47;100.00;93766.53;5092145;28;20233;-44
2023/10/26 02:30:47;;;;;;;14.07;4.97;;;;;;;15.57;100.00;93772.13;5092092;28;20194;-45
2023/10/26 02:33:14;;;;;;;18.00;5.53;;;;;;;15.52;100.00;93763.38;5090501;28;20189;-45
2023/10/26 02:35:41;;;;;;;21.83;6.07;;;;;;;15.38;100.00;93754.78;5072549;28;20190;-43
2023/10/26 02:38:08;;;;;;;18.07;5.40;;;;;;;15.43;100.00;93770.47;5071695;28;20186;-46
2023/10/26 02:40:36;;;;;;;21.07;5.63;;;;;;;15.45;100.00;93762.53;5072882;28;20187;-44
2023/10/26 02:43:03;;;;;;;20.57;5.90;;;;;;;15.42;100.00;93762.94;5090073;28;20225;-44
2023/10/26 02:45:31;;;;;;;25.63;6.07;;;;;;;15.43;100.00;93774.81;5080366;28;20186;-44
2023/10/26 02:48:00;;;;;;;15.03;5.70;;;;;;;15.42;100.00;93763.72;5071684;28;20277;-44
2023/10/26 02:50:27;;;;;;;20.53;5.47;;;;;;;15.44;100.00;93769.47;5080668;28;20185;-44
2023/10/26 02:52:54;;;;;;;18.50;5.97;;;;;;;15.43;100.00;93770.47;5091929;28;20181;-44
2023/10/26 02:55:20;;;;;;;15.67;5.53;;;;;;;15.46;100.00;93764.94;5089533;28;20189;-43
2023/10/26 02:57:48;;;;;;;13.17;5.37;;;;;;;15.47;100.00;93770.88;5091797;28;20194;-44
2023/10/26 03:00:16;;;;;;;13.60;4.93;;;;;;;15.49;100.00;93777.41;5091985;28;20694;-45
2023/10/26 03:02:43;;;;;;;17.63;4.90;;;;;;;15.52;100.00;93779.63;5091160;28;20210;-45
2023/10/26 03:05:11;;;;;;;19.43;4.83;;;;;;;15.52;100.00;93783.97;5090023;28;20188;-44
2023/10/26 03:07:38;;;;;;;14.07;4.70;;;;;;;15.50;100.00;93784.19;5074631;28;20213;-44
2023/10/26 03:10:06;;;;;;;17.63;5.10;;;;;;;15.51;100.00;93785.78;5071208;28;20260;-44
2023/10/26 03:12:32;;;;;;;15.17;5.50;;;;;;;15.51;100.00;93780.63;5070963;28;20364;-44
2023/10/26 03:15:00;;;;;;;22.37;5.83;;;;;;;15.52;100.00;93782.19;5071327;28;20202;-44
2023/10/26 03:17:26;;;;;;;18.57;5.93;;;;;;;15.45;100.00;93768.47;5080808;28;20245;-49
2023/10/26 03:19:53;;;;;;;17.10;5.43;;;;;;;15.55;100.00;93781.03;5084506;28;20186;-45
2023/10/26 03:22:22;;;;;;;21.00;5.47;;;;;;;15.38;100.00;93762.50;5071593;28;20229;-44
2023/10/26 03:24:50;;;;;;;17.67;4.80;;;;;;;15.49;100.00;93782.56;5070297;28;20194;-45
2023/10/26 03:27:17;;;;;;;23.07;6.07;;;;;;;15.48;100.00;93767.31;5081266;28;20227;-48
2023/10/26 03:29:44;;;;;;;11.00;5.27;;;;;;;15.41;100.00;93759.53;5071419;28;20197;-45
2023/10/26 03:32:11;;;;;;;16.67;5.53;;;;;;;15.43;100.00;93760.16;5071940;28;20221;-43
2023/10/26 03:34:38;;;;;;;17.63;5.07;;;;;;;15.45;100.00;93771.06;5072367;28;20636;-46
2023/10/26 03:37:05;;;;;;;16.13;5.03;;;;;;;15.45;100.00;93762.53;5073826;28;20182;-45
2023/10/26 03:39:36;;;;;;;16.63;5.47;;;;;;;15.44;100.00;93756.59;5071877;28;20186;-45
2023/10/26 03:42:03;;;;;;;14.27;5.30;;;;;;;15.43;100.00;93762.72;5075080;28;20218;-49
2023/10/26 03:44:29;;;;;;;15.77;5.07;;;;;;;15.41;100.00;93758.75;5073972;28;20183;-46
2023/10/26 03:46:56;;;;;;;12.33;5.13;;;;;;;15.43;100.00;93755.00;5074741;28;20642;-44
2023/10/26 03:49:23;;;;;;;18.67;5.03;;;;;;;15.42;100.00;93745.69;5074724;28;20179;-48
2023/10/26 03:51:50;;;;;;;16.07;5.17;;;;;;;15.44;100.00;93748.06;5070491;28;20198;-44
2023/10/26 03:54:17;;;;;;;19.70;5.70;;;;;;;15.44;100.00;93738.56;5070002;28;20190;-44
2023/10/26 03:56:45;;;;;;;11.93;4.53;;;;;;;15.44;100.00;93735.97;5070294;28;20191;-43
2023/10/26 03:59:12;;;;;;;20.90;5.40;;;;;;;15.43;100.00;93736.97;5070431;28;20195;-44
2023/10/26 04:01:38;;;;;;;13.43;4.83;;;;;;;15.47;100.00;93732.22;5070218;28;20213;-44
2023/10/26 04:04:06;;;;;;;14.10;4.93;;;;;;;15.43;100.00;93739.53;5070902;28;20210;-44
2023/10/26 04:06:33;;;;;;;17.27;6.20;;;;;;;15.38;100.00;93743.69;5079310;28;20223;-44
2023/10/26 04:09:00;;;;;;;15.03;5.77;;;;;;;15.28;100.00;93710.53;5090262;28;20189;-44
2023/10/26 04:11:26;;;;;;;26.67;6.00;;;;;;;15.29;100.00;93733.53;5090084;28;20662;-44
2023/10/26 04:13:57;;;;;;;11.87;4.63;;;;;;;15.28;100.00;93736.28;5090467;28;20177;-44
2023/10/26 04:16:24;;;;;;;23.30;6.70;;;;;;;15.26;100.00;93736.47;5079974;28;20196;-43
2023/10/26 04:18:51;;;;;;;13.63;5.47;;;;;;;15.20;100.00;93736.47;5090233;28;20182;-44
2023/10/26 04:21:18;;;;;;;17.57;5.93;;;;;;;15.18;100.00;93728.91;5069776;28;20198;-44
2023/10/26 04:23:45;;;;;;;24.07;5.73;;;;;;;15.16;100.00;93738.63;5074733;28;20221;-44
2023/10/26 04:26:12;;;;;;;21.20;5.87;;;;;;;15.12;100.00;93734.81;5067656;28;20585;-43
2023/10/26 04:28:39;;;;;;;19.47;5.97;;;;;;;15.11;100.00;93747.88;5068461;28;20253;-44
2023/10/26 04:31:08;;;;;;;12.90;5.60;;;;;;;15.11;100.00;93753.00;5069282;28;20193;-44
2023/10/26 04:33:34;;;;;;;16.17;5.67;;;;;;;15.09;100.00;93752.41;5068537;28;20201;-43
2023/10/26 04:36:03;;;;;;;14.03;5.50;;;;;;;15.06;100.00;93731.19;5069758;28;20202;-44
2023/10/26 04:38:30;;;;;;;18.70;5.83;;;;;;;15.09;100.00;93742.91;5068783;28;20612;-43
2023/10/26 04:40:57;;;;;;;11.77;5.00;;;;;;;15.09;100.00;93729.25;5071822;28;20190;-51
2023/10/26 04:43:24;;;;;;;12.53;4.60;;;;;;;15.09;100.00;93748.06;5068451;28;20217;-44
2023/10/26 04:45:51;;;;;;;19.30;5.13;;;;;;;15.12;100.00;93746.91;5068457;28;20186;-43
2023/10/26 04:48:19;;;;;;;14.60;5.33;;;;;;;15.12;100.00;93726.31;5068155;28;20600;-44
2023/10/26 04:50:46;;;;;;;13.90;5.33;;;;;;;15.13;100.00;93738.19;5068659;28;20190;-43
2023/10/26 04:53:13;;;;;;;18.73;5.93;;;;;;;14.97;100.00;93714.31;5068039;28;20692;-43
2023/10/26 04:55:40;;;;;;;8.73;4.50;;;;;;;15.16;100.00;93743.75;5068521;28;20202;-43
2023/10/26 04:58:07;;;;;;;15.47;5.57;;;;;;;15.15;100.00;93744.72;5068142;28;20693;-44
2023/10/26 05:00:35;;;;;;;10.23;4.73;;;;;;;14.91;100.00;93704.00;5068120;28;20256;-42
2023/10/26 05:03:02;;;;;;;18.43;5.00;;;;;;;15.04;100.00;93728.03;5067807;28;20669;-45
2023/10/26 05:05:30;;;;;;;12.10;4.80;;;;;;;15.21;100.00;93756.06;5068369;28;20213;-41
2023/10/26 05:07:57;;;;;;;16.77;5.23;;;;;;;15.27;100.00;93748.38;5067488;28;20190;-43
2023/10/26 05:10:24;;;;;;;15.20;4.97;;;;;;;15.30;100.00;93752.34;5070088;28;20660;-44
2023/10/26 05:12:51;;;;;;;16.73;5.27;;;;;;;15.38;100.00;93754.78;5068628;28;20194;-44
2023/10/26 05:15:18;;;;;;;21.27;5.97;;;;;;;15.44;100.00;93758.38;5068442;28;20661;-44
2023/10/26 05:17:45;;;;;;;21.07;5.47;;;;;;;15.49;100.00;93756.00;5068382;28;20205;-44
2023/10/26 05:20:12;;;;;;;23.90;5.57;;;;;;;15.57;100.00;93768.75;5067991;28;20186;-44
2023/10/26 05:22:40;;;;;;;16.07;4.83;;;;;;;15.64;100.00;93779.09;5068260;28;20229;-45
2023/10/26 05:25:10;;;;;;;17.90;5.70;;;;;;;15.53;100.00;93755.44;5067862;28;20274;-51
2023/10/26 05:27:37;;;;;;;17.80;5.03;;;;;;;15.71;100.00;93779.94;5070976;28;20258;-44
2023/10/26 05:30:04;;;;;;;13.47;6.13;;;;;;;15.73;100.00;93783.13;5070473;28;20244;-45
2023/10/26 05:32:31;;;;;;;10.63;4.33;;;;;;;15.80;100.00;93766.72;5071062;28;20665;-44
2023/10/26 05:34:58;;;;;;;19.20;5.37;;;;;;;15.86;100.00;93790.13;5067782;28;20715;-45
2023/10/26 05:37:25;;;;;;;12.03;4.60;;;;;;;15.93;100.00;93790.94;5066079;28;20190;-44
2023/10/26 05:39:53;;;;;;;17.97;5.27;;;;;;;15.91;100.00;93780.81;5070680;28;20280;-43
2023/10/26 05:42:20;;;;;;;14.93;4.67;;;;;;;15.93;100.00;93767.72;5072547;28;20194;-44
2023/10/26 05:44:47;;;;;;;15.03;4.97;;;;;;;16.13;100.00;93788.44;5068398;28;20194;-44
2023/10/26 05:47:15;;;;;;;11.67;5.17;;;;;;;16.17;100.00;93774.97;5067969;28;20641;-44
2023/10/26 05:49:42;;;;;;;18.73;5.60;;;;;;;16.30;100.00;93794.84;5071447;28;20692;-44
2023/10/26 05:52:09;;;;;;;14.63;5.67;;;;;;;16.34;100.00;93783.13;5072290;28;20585;-44
2023/10/26 05:54:36;;;;;;;12.33;5.87;;;;;;;16.46;100.00;93806.59;5075690;28;20662;-46
2023/10/26 05:57:04;;;;;;;12.97;5.57;;;;;;;16.54;100.00;93819.31;5075036;28;20670;-44
2023/10/26 05:59:31;;;;;;;14.53;4.80;;;;;;;16.61;100.00;93814.94;5071816;28;20193;-45
2023/10/26 06:01:58;;;;;;;11.90;5.70;;;;;;;16.66;100.00;93829.84;5071368;28;20217;-44
2023/10/26 06:04:25;;;;;;;15.17;6.40;;;;;;;16.47;100.00;93792.69;5071536;28;20218;-45
2023/10/26 06:06:51;;;;;;;14.43;6.80;;;;;;;16.73;100.00;93825.53;5071501;28;20240;-44
2023/10/26 06:09:19;;;;;;;22.73;7.63;;;;;;;16.75;100.00;93821.78;5071167;28;20209;-44
2023/10/26 06:11:45;;;;;;;18.13;5.77;;;;;;;16.77;100.00;93829.31;5070879;28;20285;-43
2023/10/26 06:14:14;;;;;;;15.33;6.60;;;;;;;16.77;100.00;93831.91;5071303;28;20198;-46
2023/10/26 06:16:40;;;;;;;12.53;5.37;;;;;;;16.73;100.00;93831.50;5071192;28;20194;-44
2023/10/26 06:19:07;;;;;;;15.23;5.73;;;;;;;16.78;100.00;93823.94;5071455;28;20281;-44
2023/10/26 06:21:34;;;;;;;19.03;5.77;;;;;;;16.82;100.00;93829.50;5070822;28;20194;-44
2023/10/26 06:24:01;;;;;;;14.90;5.93;;;;;;;16.86;100.00;93825.53;5071318;28;20253;-43
2023/10/26 06:26:27;;;;;;;23.30;6.57;;;;;;;16.88;100.00;93820.16;5071249;28;20206;-43
2023/10/26 06:28:55;;;;;;;23.57;7.13;;;;;;;16.89;100.00;93820.00;5071972;28;20568;-44
2023/10/26 06:31:23;;;;;;;15.10;6.47;;;;;;;16.89;100.00;93819.22;5071967;28;20189;-44
2023/10/26 06:33:50;;;;;;;13.27;6.63;;;;;;;16.86;100.00;93815.22;5071332;28;20205;-43
2023/10/26 06:36:16;;;;;;;22.10;7.93;;;;;;;16.92;100.00;93822.16;5071613;28;20300;-45
2023/10/26 06:38:43;;;;;;;16.53;6.13;;;;;;;16.93;100.00;93831.53;5069007;28;20198;-44
2023/10/26 06:41:11;;;;;;;16.10;6.37;;;;;;;16.98;100.00;93828.34;5071333;28;20206;-42
2023/10/26 06:43:38;;;;;;;16.33;5.73;;;;;;;16.97;100.00;93826.75;5070600;28;20290;-43
2023/10/26 06:46:05;;;;;;;16.90;5.93;;;;;;;17.03;100.00;93836.28;5070717;28;20673;-42
2023/10/26 06:48:33;;;;;;;10.83;5.57;;;;;;;17.07;100.00;93823.78;5067687;28;20201;-45
2023/10/26 06:51:02;;;;;;;21.03;6.13;;;;;;;17.13;100.00;93835.88;5070977;28;20207;-43
2023/10/26 06:53:29;;;;;;;18.73;6.00;;;;;;;17.15;100.00;93823.59;5067915;28;20190;-45
2023/10/26 06:55:56;;;;;;;18.10;6.00;;;;;;;17.25;100.00;93826.53;5070681;28;20209;-42
2023/10/26 06:58:23;;;;;;;18.57;5.50;;;;;;;16.83;100.00;93771.69;5070691;28;20205;-43
2023/10/26 07:00:50;;;;;;;14.53;6.73;;;;;;;17.29;100.00;93843.25;5070588;28;20267;-44
2023/10/26 07:03:16;;;;;;;17.90;6.70;;;;;;;17.33;100.00;93833.31;5070122;28;20226;-44
2023/10/26 07:05:44;;;;;;;18.30;6.53;;;;;;;17.36;100.00;93833.72;5070134;28;20650;-44
2023/10/26 07:08:11;;;;;;;17.40;6.10;;;;;;;17.34;100.00;93842.66;5070107;28;20206;-43
2023/10/26 07:10:41;;;;;;;18.37;6.63;;;;;;;17.42;100.00;93837.28;5067952;28;20186;-43
2023/10/26 07:13:08;;;;;;;23.80;6.63;;;;;;;17.47;100.00;93829.72;5070170;28;20715;-43
2023/10/26 07:15:36;;;;;;;13.03;6.53;;;;;;;17.59;100.00;93845.41;5070895;28;20276;-43
2023/10/26 07:18:06;;;;;;;19.57;7.70;;;;;;;17.63;100.00;93834.47;5072553;28;20301;-42
2023/10/26 07:20:32;;;;;;;13.93;6.80;;;;;;;17.70;100.00;93835.25;5070424;28;20186;-44
2023/10/26 07:23:01;;;;;;;13.53;7.73;;;;;;;17.81;100.00;93849.38;5070192;28;20190;-43
2023/10/26 07:25:28;;;;;;;20.30;8.03;;;;;;;17.87;100.00;93850.34;5069621;28;20194;-43
2023/10/26 07:27:54;;;;;;;24.63;10.20;;;;;;;17.88;100.00;93839.81;5070865;28;20226;-43
2023/10/26 07:30:21;;;;;;;26.27;11.40;;;;;;;17.86;100.00;93833.25;5069552;28;20658;-44
2023/10/26 07:32:49;;;;;;;21.53;11.13;;;;;;;17.85;100.00;93839.41;5069910;28;20202;-43
2023/10/26 07:35:16;;;;;;;23.30;11.20;;;;;;;17.84;100.00;93825.69;5069828;28;20608;-44
2023/10/26 07:37:43;;;;;;;28.73;12.50;;;;;;;17.90;100.00;93824.06;5069886;28;20186;-43
2023/10/26 07:40:11;;;;;;;24.27;11.27;;;;;;;17.98;100.00;93831.63;5069825;28;20190;-44
2023/10/26 07:42:38;;;;;;;28.00;9.27;;;;;;;17.96;100.00;93818.91;5070672;28;20194;-44
2023/10/26 07:45:06;;;;;;;24.00;9.60;;;;;;;17.99;98.79;93828.03;5069784;28;20316;-43
2023/10/26 07:47:34;;;;;;;32.40;9.83;;;;;;;18.06;98.16;93831.41;5069751;28;20194;-43
2023/10/26 07:50:01;;;;;;;30.43;10.90;;;;;;;18.10;97.67;93804.09;5070023;28;20267;-44
2023/10/26 07:52:27;;;;;;;25.60;8.27;;;;;;;18.17;95.21;93819.59;5069745;28;20228;-44
2023/10/26 07:54:54;;;;;;;22.40;8.03;;;;;;;18.22;94.85;93804.25;5069913;28;20209;-43
2023/10/26 07:57:23;;;;;;;14.77;6.10;;;;;;;18.32;94.88;93807.19;5071072;28;20201;-43
2023/10/26 07:59:49;;;;;;;15.63;5.60;;;;;;;18.42;92.55;93798.97;5068771;28;20198;-43
2023/10/26 08:02:16;;;;;;;11.63;4.33;;;;;;;18.55;88.83;93791.91;5069592;28;20187;-43
2023/10/26 08:04:43;;;;;;;10.70;5.63;;;;;;;18.66;87.63;93789.69;5073672;28;20225;-43
2023/10/26 08:07:10;;;;;;;20.73;5.23;;;;;;;18.76;87.89;93796.00;5069846;28;20218;-47
2023/10/26 08:09:37;;;;;;;15.20;4.00;;;;;;;18.91;84.88;93794.91;5069761;28;20269;-46
2023/10/26 08:12:04;;;;;;;13.53;3.20;;;;;;;19.05;83.23;93794.59;5071135;28;20194;-51
2023/10/26 08:14:32;;;;;;;19.23;4.43;;;;;;;19.15;83.25;93799.28;5069446;28;20190;-45
2023/10/26 08:16:59;;;;;;;16.17;3.57;;;;;;;19.22;82.53;93786.28;5069335;28;20206;-43
2023/10/26 08:19:26;;;;;;;16.40;3.23;;;;;;;19.33;79.43;93790.75;5068681;28;20578;-44
2023/10/26 08:21:53;;;;;;;22.40;3.83;;;;;;;19.33;80.01;93788.19;5067151;28;20186;-44
2023/10/26 08:24:20;;;;;;;14.83;3.80;;;;;;;19.41;79.57;93779.34;5068890;28;20217;-43
2023/10/26 08:26:48;;;;;;;9.57;2.90;;;;;;;19.42;77.55;93767.94;5068968;28;20256;-43
2023/10/26 08:29:15;;;;;;;12.33;3.50;;;;;;;19.47;76.51;93781.88;5068150;28;20273;-43
2023/10/26 08:31:43;;;;;;;15.40;3.87;;;;;;;19.57;74.60;93778.00;5068484;28;20275;-45
2023/10/26 08:34:10;;;;;;;18.23;4.50;;;;;;;19.66;74.30;93782.69;5068488;28;20190;-45
2023/10/26 08:36:37;;;;;;;12.13;3.55;;;;;;;19.77;74.98;93774.22;5069140;28;20600;-43
2023/10/26 08:39:06;;;;;;;10.90;3.53;;;;;;;19.80;75.28;93773.75;5069180;28;20194;-43
2023/10/26 08:41:33;;;;;;;15.27;3.22;;;;;;;19.91;74.61;93761.09;5068691;28;20186;-43
2023/10/26 08:44:01;;;;;;;16.08;3.20;;;;;;;19.96;72.40;93763.81;5070580;28;20423;-43
2023/10/26 08:46:29;;;;;;;12.60;4.22;;;;;;;19.99;73.67;93766.78;5069152;28;20187;-44
2023/10/26 08:48:59;;;;;;;12.07;2.95;;;;;;;20.07;72.64;93763.06;5069346;28;20179;-42
2023/10/26 08:51:27;;;;;;;16.45;3.50;;;;;;;20.17;72.08;93770.34;5069009;28;20186;-43
2023/10/26 08:53:56;;;;;;;9.90;2.63;;;;;;;20.29;71.39;93765.97;5070845;28;20247;-43
2023/10/26 08:56:24;;;;;;;8.35;2.83;;;;;;;20.42;69.55;93752.03;5069257;28;20699;-43
2023/10/26 08:58:56;;;;;;;13.90;3.15;;;;;;;20.47;68.92;93742.56;5068803;28;20285;-45
2023/10/26 09:01:23;;;;;;;7.38;3.42;;;;;;;20.51;68.96;93738.53;5069940;28;20189;-43
2023/10/26 09:03:49;;;;;;;11.52;3.28;;;;;;;20.69;68.24;93731.69;5068738;28;20213;-43
2023/10/26 09:06:18;;;;;;;12.98;4.05;;;;;;;20.76;68.56;93721.97;5070276;28;20673;-44
2023/10/26 09:08:45;;;;;;;14.32;3.78;;;;;;;20.91;68.10;93730.13;5068296;28;20666;-44
2023/10/26 09:11:22;;;;;;;8.82;3.13;;;;;;;21.11;65.49;93719.38;5067895;28;20189;-44
2023/10/26 09:13:52;;;;;;;15.82;3.10;;;;;;;21.23;65.52;93738.38;5067614;28;20725;-43
2023/10/26 09:16:20;;;;;;;14.18;3.22;;;;;;;21.36;63.59;93734.00;5067974;28;20198;-43
2023/10/26 09:18:50;;;;;;;8.15;2.97;;;;;;;21.35;62.04;93701.22;5067982;28;20657;-43
2023/10/26 09:21:19;;;;;;;9.20;3.08;;;;;;;21.49;61.23;93705.94;5068201;28;20186;-45
2023/10/26 09:23:46;;;;;;;11.35;2.95;;;;;;;21.73;59.75;93734.53;5070795;28;20217;-43
2023/10/26 09:26:13;;;;;;;12.48;3.20;;;;;;;21.79;59.61;93734.38;5071819;28;20634;-43
2023/10/26 09:28:51;;;;;;;8.20;2.65;;;;;;;21.83;59.65;93726.13;5071689;28;20277;-43
2023/10/26 09:31:18;;;;;;;9.93;3.50;;;;;;;21.89;59.40;93723.41;5071651;28;20189;-45
2023/10/26 09:33:45;;;;;;;9.45;2.90;;;;;;;21.97;59.35;93712.59;5072544;28;20210;-44
2023/10/26 09:36:14;;;;;;;12.10;2.72;;;;;;;21.98;59.95;93708.22;5072072;28;20268;-43
2023/10/26 09:38:43;;;;;;;8.93;2.92;;;;;;;22.23;60.07;93720.91;5073582;28;20197;-44
2023/10/26 09:41:12;;;;;;;9.80;3.10;;;;;;;22.40;58.69;93729.56;5072535;28;20182;-45
2023/10/26 09:43:40;;;;;;;10.63;2.58;;;;;;;22.54;56.11;93712.63;5071951;28;20190;-43
2023/10/26 09:46:07;;;;;;;13.43;3.00;;;;;;;22.69;56.50;93714.66;5072002;28;20217;-45
2023/10/26 09:48:34;;;;;;;11.48;2.95;;;;;;;22.78;57.67;93702.03;5072777;28;20662;-42
2023/10/26 09:51:01;;;;;;;7.45;2.35;;;;;;;22.95;56.37;93710.66;5075859;28;20558;-43
2023/10/26 09:53:32;;;;;;;5.75;2.35;;;;;;;23.07;56.08;93710.59;5077377;28;20186;-43
2023/10/26 09:56:02;;;;;;;6.47;2.40;;;;;;;23.14;56.39;93702.59;5072699;28;20244;-46
2023/10/26 09:58:38;;;;;;;5.32;2.50;;;;;;;23.19;56.18;93694.84;5072629;28;20191;-44
2023/10/26 10:01:33;;;;;;;11.85;2.67;;;;;;;23.18;55.53;93677.59;5073612;28;20216;-46
2023/10/26 10:04:00;;;;;;;5.28;2.47;;;;;;;23.37;55.95;93696.41;5072763;28;20206;-43
2023/10/26 10:06:48;;;;;;;7.22;2.60;;;;;;;23.45;55.33;93691.53;5072408;28;20191;-46
2023/10/26 10:09:17;;;;;;;7.22;2.40;;;;;;;23.53;54.39;93690.31;5072743;28;20222;-44
2023/10/26 10:11:45;;;;;;;6.57;2.55;;;;;;;23.54;54.95;93681.47;5073390;28;20671;-44
2023/10/26 10:14:45;;;;;;;13.70;2.40;;;;;;;23.61;54.44;93684.69;5074973;28;20260;-44
2023/10/26 10:17:12;;;;;;;5.00;2.65;;;;;;;23.56;54.84;93668.97;5072877;28;20191;-46
2023/10/26 10:19:40;;;;;;;4.65;2.92;;;;;;;23.60;54.13;93679.72;5072458;28;20296;-43
2023/10/26 10:22:46;;;;;;;5.80;2.33;;;;;;;23.61;53.78;93676.84;5073028;28;20195;-44
2023/10/26 10:25:14;;;;;;;3.97;2.40;;;;;;;23.67;53.35;93673.31;5072212;28;20230;-43
2023/10/26 10:28:09;;;;;;;10.20;2.50;;;;;;;23.76;52.86;93671.06;5068821;28;20234;-44
2023/10/26 10:30:55;;;;;;;4.03;2.13;;;;;;;23.77;53.86;93668.19;5071481;28;20285;-43
2023/10/26 10:33:24;;;;;;;10.85;2.65;;;;;;;23.76;54.14;93658.78;5074900;28;20190;-43
2023/10/26 10:36:02;;;;;;;6.70;2.47;;;;;;;23.71;54.06;93635.25;5071684;28;20718;-45
2023/10/26 10:38:29;;;;;;;6.47;2.13;;;;;;;23.91;54.10;93644.31;5071499;28;20201;-43
2023/10/26 10:41:14;;;;;;;5.18;2.20;;;;;;;23.98;53.67;93652.75;5071589;28;20205;-44
2023/10/26 10:43:45;;;;;;;12.88;2.83;;;;;;;23.93;54.12;93650.88;5071281;28;20688;-44
2023/10/26 10:46:13;;;;;;;4.63;2.45;;;;;;;23.92;54.66;93649.31;5071999;28;20288;-44
2023/10/26 10:48:59;;;;;;;9.25;2.45;;;;;;;24.00;54.60;93629.78;5071488;28;20205;-44
2023/10/26 10:51:34;;;;;;;5.72;2.97;;;;;;;24.13;55.10;93633.81;5071165;28;20190;-44
2023/10/26 10:54:03;;;;;;;10.00;2.97;;;;;;;24.25;54.97;93614.34;5068999;28;20284;-43
2023/10/26 10:56:37;;;;;;;9.27;2.50;;;;;;;24.32;53.70;93634.25;5070989;28;20202;-46
2023/10/26 10:59:17;;;;;;;11.20;3.05;;;;;;;24.41;53.19;93641.41;5073429;28;20186;-44
2023/10/26 11:01:44;;;;;;;5.53;2.58;;;;;;;24.50;54.16;93628.69;5071478;28;20186;-44
2023/10/26 11:04:16;;;;;;;8.68;3.10;;;;;;;24.48;54.27;93622.91;5070796;28;20222;-49
2023/10/26 11:06:47;;;;;;;5.38;2.40;;;;;;;24.66;52.67;93633.00;5071052;28;20645;-43
2023/10/26 11:09:27;;;;;;;6.72;2.47;;;;;;;24.57;53.23;93641.53;5071150;28;20194;-44
2023/10/26 11:11:55;;;;;;;7.88;2.58;;;;;;;24.40;53.98;93611.09;5072184;28;20293;-44
2023/10/26 11:14:23;;;;;;;10.68;2.70;;;;;;;24.45;54.11;93637.28;5074584;28;20222;-44
2023/10/26 11:16:51;;;;;;;9.52;2.60;;;;;;;24.21;54.30;93604.63;5072884;28;20198;-44
2023/10/26 11:19:19;;;;;;;7.05;3.05;;;;;;;24.43;54.30;93634.09;5070661;28;20190;-43
2023/10/26 11:21:46;;;;;;;6.15;2.65;;;;;;;24.42;53.33;93637.75;5070663;28;20190;-44
2023/10/26 11:24:19;;;;;;;7.82;2.70;;;;;;;24.42;53.82;93634.38;5071221;28;20259;-42
2023/10/26 11:27:06;;;;;;;6.40;2.53;;;;;;;24.33;53.34;93631.38;5070911;28;20226;-44